Sand Point, Michigan
Current Conditions -  °F | °C
As of 1:58 PM on Friday 24 Oct 2014 (Local Time) from KBAX Reporting Station
Overcast Overcast  
Wind Chill: 56°   Ceiling: 3000
Heat Index: 56°   Visibility: 10mi
Dew Point: 47°   Wind: 5mph
Humidity: 72%   Direction: 240°WSW
Pressure: 30"   Gusts: NA
Location:  43.8338°N, 83.2671°W
Report Text: KBAX 241758Z AUTO 24004KT 10SM OVC030 13/08 A3000 RMK AO2 T01310082 10132 20000
Loading
Personal Weather Stations






























Interactive Weather Map New forecast layout! Learn more

10-Day Weather Forecast

Advertisements
Track Severe Weather on mobile